sensor_id;sensor_type;location;lat;lon;timestamp;P1;durP1;ratioP1;P2;durP2;ratioP2
24383;SDS011;12504;52.870;8.798;2023-08-30T00:00:40;14.43;;;9.52;;
24383;SDS011;12504;52.870;8.798;2023-08-30T00:03:06;14.50;;;9.25;;
24383;SDS011;12504;52.870;8.798;2023-08-30T00:05:32;16.23;;;9.23;;
24383;SDS011;12504;52.870;8.798;2023-08-30T00:07:58;19.92;;;11.93;;
24383;SDS011;12504;52.870;8.798;2023-08-30T00:10:24;18.77;;;11.13;;
24383;SDS011;12504;52.870;8.798;2023-08-30T00:12:49;13.60;;;10.02;;
24383;SDS011;12504;52.870;8.798;2023-08-30T00:15:15;19.38;;;11.95;;
24383;SDS011;12504;52.870;8.798;2023-08-30T00:17:41;19.02;;;12.07;;
24383;SDS011;12504;52.870;8.798;2023-08-30T00:20:07;19.15;;;12.38;;
24383;SDS011;12504;52.870;8.798;2023-08-30T00:22:37;18.45;;;11.38;;
24383;SDS011;12504;52.870;8.798;2023-08-30T00:25:03;22.63;;;13.73;;
24383;SDS011;12504;52.870;8.798;2023-08-30T00:27:28;25.95;;;15.02;;
24383;SDS011;12504;52.870;8.798;2023-08-30T00:29:54;24.30;;;14.98;;
24383;SDS011;12504;52.870;8.798;2023-08-30T00:32:20;22.30;;;14.27;;
24383;SDS011;12504;52.870;8.798;2023-08-30T00:34:49;21.30;;;13.95;;
24383;SDS011;12504;52.870;8.798;2023-08-30T00:37:15;23.98;;;14.20;;
24383;SDS011;12504;52.870;8.798;2023-08-30T00:39:41;22.63;;;14.90;;
24383;SDS011;12504;52.870;8.798;2023-08-30T00:42:06;24.05;;;14.70;;
24383;SDS011;12504;52.870;8.798;2023-08-30T00:44:33;22.58;;;13.73;;
24383;SDS011;12504;52.870;8.798;2023-08-30T00:47:00;24.38;;;15.13;;
24383;SDS011;12504;52.870;8.798;2023-08-30T00:49:27;22.58;;;13.75;;
24383;SDS011;12504;52.870;8.798;2023-08-30T00:51:56;21.15;;;12.38;;
24383;SDS011;12504;52.870;8.798;2023-08-30T00:54:25;23.48;;;16.17;;
24383;SDS011;12504;52.870;8.798;2023-08-30T00:56:51;19.50;;;12.68;;
24383;SDS011;12504;52.870;8.798;2023-08-30T00:59:17;18.98;;;13.43;;
24383;SDS011;12504;52.870;8.798;2023-08-30T01:01:43;18.92;;;12.68;;
24383;SDS011;12504;52.870;8.798;2023-08-30T01:04:10;18.38;;;11.25;;
24383;SDS011;12504;52.870;8.798;2023-08-30T01:06:35;19.98;;;13.40;;
24383;SDS011;12504;52.870;8.798;2023-08-30T01:09:02;20.70;;;13.38;;
24383;SDS011;12504;52.870;8.798;2023-08-30T01:14:13;21.65;;;14.18;;
24383;SDS011;12504;52.870;8.798;2023-08-30T01:16:43;18.63;;;11.75;;
24383;SDS011;12504;52.870;8.798;2023-08-30T01:24:57;18.08;;;11.60;;
24383;SDS011;12504;52.870;8.798;2023-08-30T01:27:42;19.70;;;10.80;;
24383;SDS011;12504;52.870;8.798;2023-08-30T01:30:12;16.73;;;10.77;;
24383;SDS011;12504;52.870;8.798;2023-08-30T01:32:39;16.83;;;11.65;;
24383;SDS011;12504;52.870;8.798;2023-08-30T01:35:06;16.73;;;11.23;;
24383;SDS011;12504;52.870;8.798;2023-08-30T01:37:32;19.20;;;11.50;;
24383;SDS011;12504;52.870;8.798;2023-08-30T01:39:59;15.40;;;10.30;;
24383;SDS011;12504;52.870;8.798;2023-08-30T01:42:28;15.17;;;10.77;;
24383;SDS011;12504;52.870;8.798;2023-08-30T01:44:55;18.10;;;11.52;;
24383;SDS011;12504;52.870;8.798;2023-08-30T01:47:24;17.92;;;10.88;;
24383;SDS011;12504;52.870;8.798;2023-08-30T01:49:55;19.27;;;10.85;;
24383;SDS011;12504;52.870;8.798;2023-08-30T01:52:23;16.80;;;10.98;;
24383;SDS011;12504;52.870;8.798;2023-08-30T01:54:50;18.05;;;9.88;;
24383;SDS011;12504;52.870;8.798;2023-08-30T01:57:18;15.25;;;9.95;;
24383;SDS011;12504;52.870;8.798;2023-08-30T01:59:44;16.13;;;11.35;;
24383;SDS011;12504;52.870;8.798;2023-08-30T02:02:10;19.95;;;12.38;;
24383;SDS011;12504;52.870;8.798;2023-08-30T02:04:37;19.42;;;11.90;;
24383;SDS011;12504;52.870;8.798;2023-08-30T02:07:03;18.35;;;11.80;;
24383;SDS011;12504;52.870;8.798;2023-08-30T02:09:35;22.73;;;12.15;;
24383;SDS011;12504;52.870;8.798;2023-08-30T02:12:13;20.48;;;12.98;;
24383;SDS011;12504;52.870;8.798;2023-08-30T02:14:44;22.25;;;11.57;;
24383;SDS011;12504;52.870;8.798;2023-08-30T02:17:16;19.63;;;12.00;;
24383;SDS011;12504;52.870;8.798;2023-08-30T02:19:43;17.42;;;12.75;;
24383;SDS011;12504;52.870;8.798;2023-08-30T02:22:09;19.95;;;13.07;;
24383;SDS011;12504;52.870;8.798;2023-08-30T02:24:35;17.42;;;11.68;;
24383;SDS011;12504;52.870;8.798;2023-08-30T02:27:01;20.70;;;12.63;;
24383;SDS011;12504;52.870;8.798;2023-08-30T02:29:27;19.25;;;12.73;;
24383;SDS011;12504;52.870;8.798;2023-08-30T02:31:52;19.73;;;12.43;;
24383;SDS011;12504;52.870;8.798;2023-08-30T02:34:20;19.42;;;13.43;;
24383;SDS011;12504;52.870;8.798;2023-08-30T02:36:46;21.80;;;12.98;;
24383;SDS011;12504;52.870;8.798;2023-08-30T02:39:13;19.23;;;12.93;;
24383;SDS011;12504;52.870;8.798;2023-08-30T02:41:40;24.65;;;14.63;;
24383;SDS011;12504;52.870;8.798;2023-08-30T02:44:07;18.88;;;13.65;;
24383;SDS011;12504;52.870;8.798;2023-08-30T02:46:33;22.10;;;14.52;;
24383;SDS011;12504;52.870;8.798;2023-08-30T02:48:59;23.90;;;15.25;;
24383;SDS011;12504;52.870;8.798;2023-08-30T02:51:25;24.98;;;13.73;;
24383;SDS011;12504;52.870;8.798;2023-08-30T02:53:51;23.08;;;15.32;;
24383;SDS011;12504;52.870;8.798;2023-08-30T02:56:16;24.52;;;16.15;;
24383;SDS011;12504;52.870;8.798;2023-08-30T02:58:42;25.63;;;14.85;;
24383;SDS011;12504;52.870;8.798;2023-08-30T03:01:08;21.70;;;14.45;;
24383;SDS011;12504;52.870;8.798;2023-08-30T03:03:34;23.23;;;15.35;;
24383;SDS011;12504;52.870;8.798;2023-08-30T03:06:01;27.85;;;15.98;;
24383;SDS011;12504;52.870;8.798;2023-08-30T03:08:28;23.88;;;14.27;;
24383;SDS011;12504;52.870;8.798;2023-08-30T03:10:54;25.00;;;15.07;;
24383;SDS011;12504;52.870;8.798;2023-08-30T03:13:20;25.27;;;16.95;;
24383;SDS011;12504;52.870;8.798;2023-08-30T03:15:47;26.98;;;16.30;;
24383;SDS011;12504;52.870;8.798;2023-08-30T03:18:13;23.90;;;15.95;;
24383;SDS011;12504;52.870;8.798;2023-08-30T03:20:38;23.95;;;13.70;;
24383;SDS011;12504;52.870;8.798;2023-08-30T03:23:05;25.63;;;16.27;;
24383;SDS011;12504;52.870;8.798;2023-08-30T03:25:32;24.42;;;15.80;;
24383;SDS011;12504;52.870;8.798;2023-08-30T03:27:58;21.77;;;14.18;;
24383;SDS011;12504;52.870;8.798;2023-08-30T03:30:24;27.73;;;15.20;;
24383;SDS011;12504;52.870;8.798;2023-08-30T03:32:50;25.95;;;15.15;;
24383;SDS011;12504;52.870;8.798;2023-08-30T03:35:16;27.00;;;16.52;;
24383;SDS011;12504;52.870;8.798;2023-08-30T03:37:42;23.48;;;14.70;;
24383;SDS011;12504;52.870;8.798;2023-08-30T03:40:07;26.77;;;15.85;;
24383;SDS011;12504;52.870;8.798;2023-08-30T03:42:34;23.95;;;15.80;;
24383;SDS011;12504;52.870;8.798;2023-08-30T03:45:02;23.75;;;16.13;;
24383;SDS011;12504;52.870;8.798;2023-08-30T03:47:30;25.95;;;15.25;;
24383;SDS011;12504;52.870;8.798;2023-08-30T03:49:56;25.08;;;16.27;;
24383;SDS011;12504;52.870;8.798;2023-08-30T03:52:22;25.38;;;15.80;;
24383;SDS011;12504;52.870;8.798;2023-08-30T03:54:47;29.48;;;16.70;;
24383;SDS011;12504;52.870;8.798;2023-08-30T03:57:13;40.13;;;18.42;;
24383;SDS011;12504;52.870;8.798;2023-08-30T03:59:39;29.10;;;17.40;;
24383;SDS011;12504;52.870;8.798;2023-08-30T04:02:04;23.52;;;15.88;;
24383;SDS011;12504;52.870;8.798;2023-08-30T04:04:30;29.08;;;17.58;;
24383;SDS011;12504;52.870;8.798;2023-08-30T04:06:56;25.70;;;16.42;;
24383;SDS011;12504;52.870;8.798;2023-08-30T04:09:21;35.67;;;19.42;;
24383;SDS011;12504;52.870;8.798;2023-08-30T04:11:47;26.17;;;16.17;;
24383;SDS011;12504;52.870;8.798;2023-08-30T04:14:13;25.58;;;15.77;;
24383;SDS011;12504;52.870;8.798;2023-08-30T04:16:40;27.90;;;17.25;;
24383;SDS011;12504;52.870;8.798;2023-08-30T04:19:06;30.55;;;17.88;;
24383;SDS011;12504;52.870;8.798;2023-08-30T04:21:32;28.00;;;17.52;;
24383;SDS011;12504;52.870;8.798;2023-08-30T04:23:58;28.02;;;16.70;;
24383;SDS011;12504;52.870;8.798;2023-08-30T04:26:23;27.20;;;16.65;;
24383;SDS011;12504;52.870;8.798;2023-08-30T04:28:49;28.38;;;18.08;;
24383;SDS011;12504;52.870;8.798;2023-08-30T04:31:15;30.52;;;18.35;;
24383;SDS011;12504;52.870;8.798;2023-08-30T04:33:41;25.95;;;16.45;;
24383;SDS011;12504;52.870;8.798;2023-08-30T04:36:08;28.80;;;17.20;;
24383;SDS011;12504;52.870;8.798;2023-08-30T04:38:34;25.25;;;16.52;;
24383;SDS011;12504;52.870;8.798;2023-08-30T04:41:00;25.23;;;15.32;;
24383;SDS011;12504;52.870;8.798;2023-08-30T04:43:31;25.55;;;17.55;;
24383;SDS011;12504;52.870;8.798;2023-08-30T04:45:57;26.63;;;18.00;;
24383;SDS011;12504;52.870;8.798;2023-08-30T04:48:23;28.23;;;16.08;;
24383;SDS011;12504;52.870;8.798;2023-08-30T04:50:57;25.33;;;16.60;;
24383;SDS011;12504;52.870;8.798;2023-08-30T04:53:29;27.58;;;17.63;;
24383;SDS011;12504;52.870;8.798;2023-08-30T04:55:57;26.05;;;17.00;;
24383;SDS011;12504;52.870;8.798;2023-08-30T04:58:24;25.20;;;16.58;;
24383;SDS011;12504;52.870;8.798;2023-08-30T05:00:50;27.58;;;16.13;;
24383;SDS011;12504;52.870;8.798;2023-08-30T05:03:17;28.30;;;16.58;;
24383;SDS011;12504;52.870;8.798;2023-08-30T05:05:45;27.95;;;16.42;;
24383;SDS011;12504;52.870;8.798;2023-08-30T05:08:13;35.17;;;19.05;;
24383;SDS011;12504;52.870;8.798;2023-08-30T05:10:39;28.00;;;18.60;;
24383;SDS011;12504;52.870;8.798;2023-08-30T05:13:05;27.08;;;17.83;;
24383;SDS011;12504;52.870;8.798;2023-08-30T05:15:31;31.50;;;19.50;;
24383;SDS011;12504;52.870;8.798;2023-08-30T05:17:57;31.15;;;18.85;;
24383;SDS011;12504;52.870;8.798;2023-08-30T05:20:23;28.67;;;19.52;;
24383;SDS011;12504;52.870;8.798;2023-08-30T05:22:51;25.55;;;17.40;;
24383;SDS011;12504;52.870;8.798;2023-08-30T05:25:18;24.17;;;15.95;;
24383;SDS011;12504;52.870;8.798;2023-08-30T05:27:44;28.08;;;17.33;;
24383;SDS011;12504;52.870;8.798;2023-08-30T05:30:10;28.20;;;17.70;;
24383;SDS011;12504;52.870;8.798;2023-08-30T05:32:36;30.00;;;18.02;;
24383;SDS011;12504;52.870;8.798;2023-08-30T05:35:37;29.80;;;19.88;;
24383;SDS011;12504;52.870;8.798;2023-08-30T05:38:09;30.35;;;18.23;;
24383;SDS011;12504;52.870;8.798;2023-08-30T05:40:40;26.23;;;16.38;;
24383;SDS011;12504;52.870;8.798;2023-08-30T05:43:09;31.85;;;19.27;;
24383;SDS011;12504;52.870;8.798;2023-08-30T05:45:36;30.15;;;19.13;;
24383;SDS011;12504;52.870;8.798;2023-08-30T05:48:02;28.38;;;18.95;;
24383;SDS011;12504;52.870;8.798;2023-08-30T05:50:29;27.92;;;18.35;;
24383;SDS011;12504;52.870;8.798;2023-08-30T05:52:55;29.85;;;18.30;;
24383;SDS011;12504;52.870;8.798;2023-08-30T05:55:21;30.23;;;18.17;;
24383;SDS011;12504;52.870;8.798;2023-08-30T05:57:47;29.15;;;18.35;;
24383;SDS011;12504;52.870;8.798;2023-08-30T06:00:13;35.67;;;21.27;;
24383;SDS011;12504;52.870;8.798;2023-08-30T06:02:39;29.17;;;19.52;;
24383;SDS011;12504;52.870;8.798;2023-08-30T06:05:06;31.00;;;19.25;;
24383;SDS011;12504;52.870;8.798;2023-08-30T06:07:32;29.13;;;17.88;;
24383;SDS011;12504;52.870;8.798;2023-08-30T06:09:58;31.95;;;18.30;;
24383;SDS011;12504;52.870;8.798;2023-08-30T06:12:24;33.08;;;18.88;;
24383;SDS011;12504;52.870;8.798;2023-08-30T06:14:50;29.52;;;17.85;;
24383;SDS011;12504;52.870;8.798;2023-08-30T06:17:19;30.83;;;18.13;;
24383;SDS011;12504;52.870;8.798;2023-08-30T06:19:45;30.33;;;17.13;;
24383;SDS011;12504;52.870;8.798;2023-08-30T06:22:11;29.85;;;18.20;;
24383;SDS011;12504;52.870;8.798;2023-08-30T06:24:37;27.60;;;17.15;;
24383;SDS011;12504;52.870;8.798;2023-08-30T06:27:03;28.38;;;18.02;;
24383;SDS011;12504;52.870;8.798;2023-08-30T06:29:29;31.42;;;17.65;;
24383;SDS011;12504;52.870;8.798;2023-08-30T06:31:54;33.17;;;17.67;;
24383;SDS011;12504;52.870;8.798;2023-08-30T06:34:20;28.65;;;17.23;;
24383;SDS011;12504;52.870;8.798;2023-08-30T06:36:46;25.60;;;17.27;;
24383;SDS011;12504;52.870;8.798;2023-08-30T06:39:13;34.05;;;17.45;;
24383;SDS011;12504;52.870;8.798;2023-08-30T06:41:38;28.48;;;17.27;;
24383;SDS011;12504;52.870;8.798;2023-08-30T06:44:04;26.67;;;15.77;;
24383;SDS011;12504;52.870;8.798;2023-08-30T06:46:30;26.23;;;16.88;;
24383;SDS011;12504;52.870;8.798;2023-08-30T06:48:56;28.95;;;17.23;;
24383;SDS011;12504;52.870;8.798;2023-08-30T06:51:21;25.65;;;16.70;;
24383;SDS011;12504;52.870;8.798;2023-08-30T06:53:47;28.17;;;18.73;;
24383;SDS011;12504;52.870;8.798;2023-08-30T06:56:13;29.13;;;18.33;;
24383;SDS011;12504;52.870;8.798;2023-08-30T06:58:38;26.65;;;17.02;;
24383;SDS011;12504;52.870;8.798;2023-08-30T07:01:04;24.98;;;16.35;;
24383;SDS011;12504;52.870;8.798;2023-08-30T07:03:30;30.88;;;18.23;;
24383;SDS011;12504;52.870;8.798;2023-08-30T07:05:56;23.65;;;16.42;;
24383;SDS011;12504;52.870;8.798;2023-08-30T07:08:22;26.50;;;16.27;;
24383;SDS011;12504;52.870;8.798;2023-08-30T07:10:47;22.17;;;14.07;;
24383;SDS011;12504;52.870;8.798;2023-08-30T07:13:13;27.27;;;16.38;;
24383;SDS011;12504;52.870;8.798;2023-08-30T07:15:39;26.98;;;17.77;;
24383;SDS011;12504;52.870;8.798;2023-08-30T07:18:06;26.58;;;15.95;;
24383;SDS011;12504;52.870;8.798;2023-08-30T07:20:34;24.65;;;15.63;;
24383;SDS011;12504;52.870;8.798;2023-08-30T07:23:02;27.60;;;16.02;;
24383;SDS011;12504;52.870;8.798;2023-08-30T07:25:29;25.17;;;14.50;;
24383;SDS011;12504;52.870;8.798;2023-08-30T07:27:56;23.75;;;14.88;;
24383;SDS011;12504;52.870;8.798;2023-08-30T07:30:21;23.33;;;14.93;;
24383;SDS011;12504;52.870;8.798;2023-08-30T07:32:47;20.83;;;13.05;;
24383;SDS011;12504;52.870;8.798;2023-08-30T07:35:13;23.23;;;14.98;;
24383;SDS011;12504;52.870;8.798;2023-08-30T07:37:39;22.88;;;15.18;;
24383;SDS011;12504;52.870;8.798;2023-08-30T07:40:05;21.83;;;13.68;;
24383;SDS011;12504;52.870;8.798;2023-08-30T07:42:32;20.67;;;12.43;;
24383;SDS011;12504;52.870;8.798;2023-08-30T07:44:57;23.02;;;15.10;;
24383;SDS011;12504;52.870;8.798;2023-08-30T07:47:23;21.73;;;12.20;;
24383;SDS011;12504;52.870;8.798;2023-08-30T07:49:49;18.85;;;11.75;;
24383;SDS011;12504;52.870;8.798;2023-08-30T07:52:14;18.23;;;11.18;;
24383;SDS011;12504;52.870;8.798;2023-08-30T07:54:40;17.25;;;10.73;;
24383;SDS011;12504;52.870;8.798;2023-08-30T07:57:06;17.67;;;10.43;;
24383;SDS011;12504;52.870;8.798;2023-08-30T07:59:33;21.70;;;11.80;;
24383;SDS011;12504;52.870;8.798;2023-08-30T08:02:00;17.55;;;11.32;;
24383;SDS011;12504;52.870;8.798;2023-08-30T08:04:26;16.30;;;10.80;;
24383;SDS011;12504;52.870;8.798;2023-08-30T08:06:52;18.38;;;11.82;;
24383;SDS011;12504;52.870;8.798;2023-08-30T08:09:17;19.42;;;10.88;;
24383;SDS011;12504;52.870;8.798;2023-08-30T08:11:43;22.40;;;13.48;;
24383;SDS011;12504;52.870;8.798;2023-08-30T08:14:09;17.30;;;10.77;;
24383;SDS011;12504;52.870;8.798;2023-08-30T08:16:36;18.83;;;11.57;;
24383;SDS011;12504;52.870;8.798;2023-08-30T08:19:02;18.50;;;11.43;;
24383;SDS011;12504;52.870;8.798;2023-08-30T08:21:28;20.33;;;13.05;;
24383;SDS011;12504;52.870;8.798;2023-08-30T08:23:53;16.20;;;10.63;;
24383;SDS011;12504;52.870;8.798;2023-08-30T08:26:19;15.77;;;10.75;;
24383;SDS011;12504;52.870;8.798;2023-08-30T08:28:45;20.67;;;11.23;;
24383;SDS011;12504;52.870;8.798;2023-08-30T08:31:11;13.77;;;9.15;;
24383;SDS011;12504;52.870;8.798;2023-08-30T08:33:36;18.25;;;10.18;;
24383;SDS011;12504;52.870;8.798;2023-08-30T08:36:02;15.80;;;9.98;;
24383;SDS011;12504;52.870;8.798;2023-08-30T08:38:28;14.48;;;10.10;;
24383;SDS011;12504;52.870;8.798;2023-08-30T08:41:00;14.45;;;9.65;;
24383;SDS011;12504;52.870;8.798;2023-08-30T08:43:28;15.80;;;11.02;;
24383;SDS011;12504;52.870;8.798;2023-08-30T08:45:56;18.38;;;12.05;;
24383;SDS011;12504;52.870;8.798;2023-08-30T08:48:25;17.90;;;10.45;;
24383;SDS011;12504;52.870;8.798;2023-08-30T08:50:58;19.02;;;11.25;;
24383;SDS011;12504;52.870;8.798;2023-08-30T08:53:25;16.77;;;10.77;;
24383;SDS011;12504;52.870;8.798;2023-08-30T08:55:51;14.70;;;11.20;;
24383;SDS011;12504;52.870;8.798;2023-08-30T08:58:18;18.70;;;11.15;;
24383;SDS011;12504;52.870;8.798;2023-08-30T09:00:44;15.77;;;10.40;;
24383;SDS011;12504;52.870;8.798;2023-08-30T09:03:10;22.05;;;12.02;;
24383;SDS011;12504;52.870;8.798;2023-08-30T09:05:39;21.73;;;11.82;;
24383;SDS011;12504;52.870;8.798;2023-08-30T09:08:06;14.85;;;10.45;;
24383;SDS011;12504;52.870;8.798;2023-08-30T09:10:34;19.45;;;10.68;;
24383;SDS011;12504;52.870;8.798;2023-08-30T09:13:01;16.83;;;12.18;;
24383;SDS011;12504;52.870;8.798;2023-08-30T09:15:32;15.98;;;10.77;;
24383;SDS011;12504;52.870;8.798;2023-08-30T09:17:59;16.77;;;11.20;;
24383;SDS011;12504;52.870;8.798;2023-08-30T09:20:25;21.90;;;12.25;;
24383;SDS011;12504;52.870;8.798;2023-08-30T09:22:51;17.52;;;10.88;;
24383;SDS011;12504;52.870;8.798;2023-08-30T09:25:23;20.92;;;12.05;;
24383;SDS011;12504;52.870;8.798;2023-08-30T09:27:50;17.63;;;11.63;;
24383;SDS011;12504;52.870;8.798;2023-08-30T09:30:21;18.48;;;11.45;;
24383;SDS011;12504;52.870;8.798;2023-08-30T09:32:47;20.35;;;11.55;;
24383;SDS011;12504;52.870;8.798;2023-08-30T09:35:12;21.10;;;12.23;;
24383;SDS011;12504;52.870;8.798;2023-08-30T09:37:38;18.13;;;11.65;;
24383;SDS011;12504;52.870;8.798;2023-08-30T09:40:04;21.42;;;11.00;;
24383;SDS011;12504;52.870;8.798;2023-08-30T09:42:31;20.33;;;13.02;;
24383;SDS011;12504;52.870;8.798;2023-08-30T09:44:56;19.52;;;11.15;;
24383;SDS011;12504;52.870;8.798;2023-08-30T09:47:25;19.88;;;13.10;;
24383;SDS011;12504;52.870;8.798;2023-08-30T09:49:52;24.80;;;13.82;;
24383;SDS011;12504;52.870;8.798;2023-08-30T09:52:20;16.70;;;11.93;;
24383;SDS011;12504;52.870;8.798;2023-08-30T09:54:49;17.17;;;11.52;;
24383;SDS011;12504;52.870;8.798;2023-08-30T09:57:16;16.23;;;11.23;;
24383;SDS011;12504;52.870;8.798;2023-08-30T09:59:42;17.65;;;10.60;;
24383;SDS011;12504;52.870;8.798;2023-08-30T10:02:08;15.93;;;11.05;;
24383;SDS011;12504;52.870;8.798;2023-08-30T10:04:36;16.58;;;10.40;;
24383;SDS011;12504;52.870;8.798;2023-08-30T10:07:04;18.67;;;12.05;;
24383;SDS011;12504;52.870;8.798;2023-08-30T10:09:32;19.55;;;9.90;;
24383;SDS011;12504;52.870;8.798;2023-08-30T10:11:58;12.32;;;9.48;;
24383;SDS011;12504;52.870;8.798;2023-08-30T10:14:26;16.20;;;9.63;;
24383;SDS011;12504;52.870;8.798;2023-08-30T10:16:54;14.60;;;9.73;;
24383;SDS011;12504;52.870;8.798;2023-08-30T10:19:28;14.13;;;9.82;;
24383;SDS011;12504;52.870;8.798;2023-08-30T10:22:02;13.65;;;9.60;;
24383;SDS011;12504;52.870;8.798;2023-08-30T10:24:37;14.07;;;10.10;;
24383;SDS011;12504;52.870;8.798;2023-08-30T10:27:06;13.00;;;8.77;;
24383;SDS011;12504;52.870;8.798;2023-08-30T10:29:34;16.48;;;9.90;;
24383;SDS011;12504;52.870;8.798;2023-08-30T10:32:02;12.85;;;9.95;;
24383;SDS011;12504;52.870;8.798;2023-08-30T10:34:31;19.88;;;11.57;;
24383;SDS011;12504;52.870;8.798;2023-08-30T10:36:59;17.58;;;10.68;;
24383;SDS011;12504;52.870;8.798;2023-08-30T10:39:59;15.25;;;10.10;;
24383;SDS011;12504;52.870;8.798;2023-08-30T10:42:21;14.98;;;10.05;;
24383;SDS011;12504;52.870;8.798;2023-08-30T10:47:24;16.08;;;10.35;;
24383;SDS011;12504;52.870;8.798;2023-08-30T10:49:54;14.73;;;9.40;;
24383;SDS011;12504;52.870;8.798;2023-08-30T10:52:20;16.73;;;10.07;;
24383;SDS011;12504;52.870;8.798;2023-08-30T10:54:46;15.52;;;10.52;;
24383;SDS011;12504;52.870;8.798;2023-08-30T10:57:13;15.88;;;10.75;;
24383;SDS011;12504;52.870;8.798;2023-08-30T10:59:39;16.15;;;10.88;;
24383;SDS011;12504;52.870;8.798;2023-08-30T11:02:08;16.35;;;10.48;;
24383;SDS011;12504;52.870;8.798;2023-08-30T11:04:38;15.57;;;10.57;;
24383;SDS011;12504;52.870;8.798;2023-08-30T11:07:06;13.55;;;9.70;;
24383;SDS011;12504;52.870;8.798;2023-08-30T11:09:32;16.67;;;9.73;;
24383;SDS011;12504;52.870;8.798;2023-08-30T11:11:58;13.65;;;8.80;;
24383;SDS011;12504;52.870;8.798;2023-08-30T11:14:30;13.43;;;9.23;;
24383;SDS011;12504;52.870;8.798;2023-08-30T11:16:56;15.23;;;9.57;;
24383;SDS011;12504;52.870;8.798;2023-08-30T11:19:22;14.10;;;10.82;;
24383;SDS011;12504;52.870;8.798;2023-08-30T11:21:48;19.10;;;10.82;;
24383;SDS011;12504;52.870;8.798;2023-08-30T11:24:14;11.90;;;8.65;;
24383;SDS011;12504;52.870;8.798;2023-08-30T11:26:40;12.50;;;8.60;;
24383;SDS011;12504;52.870;8.798;2023-08-30T11:29:07;14.43;;;9.20;;
24383;SDS011;12504;52.870;8.798;2023-08-30T11:31:34;13.77;;;7.55;;
24383;SDS011;12504;52.870;8.798;2023-08-30T11:34:00;9.95;;;7.10;;
24383;SDS011;12504;52.870;8.798;2023-08-30T11:36:30;14.95;;;8.43;;
24383;SDS011;12504;52.870;8.798;2023-08-30T11:38:57;10.90;;;6.97;;
24383;SDS011;12504;52.870;8.798;2023-08-30T11:41:24;11.90;;;7.78;;
24383;SDS011;12504;52.870;8.798;2023-08-30T11:43:51;13.65;;;7.05;;
24383;SDS011;12504;52.870;8.798;2023-08-30T11:46:17;9.82;;;7.25;;
24383;SDS011;12504;52.870;8.798;2023-08-30T11:48:44;11.15;;;7.38;;
24383;SDS011;12504;52.870;8.798;2023-08-30T11:51:10;10.90;;;6.68;;
24383;SDS011;12504;52.870;8.798;2023-08-30T11:53:37;9.13;;;6.22;;
24383;SDS011;12504;52.870;8.798;2023-08-30T11:56:04;10.68;;;7.32;;
24383;SDS011;12504;52.870;8.798;2023-08-30T11:58:37;12.52;;;7.65;;
24383;SDS011;12504;52.870;8.798;2023-08-30T12:01:03;12.13;;;8.18;;
24383;SDS011;12504;52.870;8.798;2023-08-30T12:03:30;14.13;;;8.63;;
24383;SDS011;12504;52.870;8.798;2023-08-30T12:05:56;12.57;;;8.20;;
24383;SDS011;12504;52.870;8.798;2023-08-30T12:08:23;11.60;;;7.05;;
24383;SDS011;12504;52.870;8.798;2023-08-30T12:10:58;12.00;;;6.80;;
24383;SDS011;12504;52.870;8.798;2023-08-30T12:13:24;9.90;;;7.47;;
24383;SDS011;12504;52.870;8.798;2023-08-30T12:15:51;12.10;;;7.70;;
24383;SDS011;12504;52.870;8.798;2023-08-30T12:18:20;10.75;;;7.30;;
24383;SDS011;12504;52.870;8.798;2023-08-30T12:20:52;13.25;;;7.07;;
24383;SDS011;12504;52.870;8.798;2023-08-30T12:23:22;12.40;;;7.28;;
24383;SDS011;12504;52.870;8.798;2023-08-30T12:25:59;9.90;;;6.30;;
24383;SDS011;12504;52.870;8.798;2023-08-30T12:28:26;10.75;;;6.68;;
24383;SDS011;12504;52.870;8.798;2023-08-30T12:30:52;7.60;;;5.45;;
24383;SDS011;12504;52.870;8.798;2023-08-30T12:33:18;9.77;;;6.00;;
24383;SDS011;12504;52.870;8.798;2023-08-30T12:35:44;11.13;;;6.15;;
24383;SDS011;12504;52.870;8.798;2023-08-30T12:38:10;9.20;;;6.40;;
24383;SDS011;12504;52.870;8.798;2023-08-30T12:40:54;12.18;;;7.22;;
24383;SDS011;12504;52.870;8.798;2023-08-30T12:43:21;10.23;;;6.80;;
24383;SDS011;12504;52.870;8.798;2023-08-30T12:45:47;9.13;;;7.05;;
24383;SDS011;12504;52.870;8.798;2023-08-30T12:48:14;11.15;;;7.35;;
24383;SDS011;12504;52.870;8.798;2023-08-30T12:50:42;10.73;;;6.50;;
24383;SDS011;12504;52.870;8.798;2023-08-30T12:53:09;10.82;;;7.55;;
24383;SDS011;12504;52.870;8.798;2023-08-30T12:55:35;10.18;;;7.07;;
24383;SDS011;12504;52.870;8.798;2023-08-30T12:58:01;14.02;;;7.55;;
24383;SDS011;12504;52.870;8.798;2023-08-30T13:00:30;15.30;;;9.18;;
24383;SDS011;12504;52.870;8.798;2023-08-30T13:02:55;10.82;;;7.82;;
24383;SDS011;12504;52.870;8.798;2023-08-30T13:05:21;15.98;;;9.77;;
24383;SDS011;12504;52.870;8.798;2023-08-30T13:07:47;11.68;;;7.78;;
24383;SDS011;12504;52.870;8.798;2023-08-30T13:10:13;15.07;;;9.68;;
24383;SDS011;12504;52.870;8.798;2023-08-30T13:12:39;14.00;;;8.63;;
24383;SDS011;12504;52.870;8.798;2023-08-30T13:15:05;18.30;;;9.02;;
24383;SDS011;12504;52.870;8.798;2023-08-30T13:17:32;15.27;;;8.70;;
24383;SDS011;12504;52.870;8.798;2023-08-30T13:19:58;13.27;;;8.93;;
24383;SDS011;12504;52.870;8.798;2023-08-30T13:22:24;14.25;;;9.18;;
24383;SDS011;12504;52.870;8.798;2023-08-30T13:24:51;15.80;;;8.50;;
24383;SDS011;12504;52.870;8.798;2023-08-30T13:27:17;15.27;;;9.32;;
24383;SDS011;12504;52.870;8.798;2023-08-30T13:29:43;15.63;;;9.20;;
24383;SDS011;12504;52.870;8.798;2023-08-30T13:32:09;15.15;;;9.73;;
24383;SDS011;12504;52.870;8.798;2023-08-30T13:34:35;29.95;;;10.40;;
24383;SDS011;12504;52.870;8.798;2023-08-30T13:37:01;17.05;;;10.63;;
24383;SDS011;12504;52.870;8.798;2023-08-30T13:39:26;15.48;;;10.77;;
24383;SDS011;12504;52.870;8.798;2023-08-30T13:41:52;17.33;;;9.98;;
24383;SDS011;12504;52.870;8.798;2023-08-30T13:44:18;21.13;;;12.20;;
24383;SDS011;12504;52.870;8.798;2023-08-30T13:46:43;21.73;;;11.68;;
24383;SDS011;12504;52.870;8.798;2023-08-30T13:49:09;17.85;;;11.02;;
24383;SDS011;12504;52.870;8.798;2023-08-30T13:51:36;18.25;;;12.75;;
24383;SDS011;12504;52.870;8.798;2023-08-30T13:54:02;23.48;;;12.88;;
24383;SDS011;12504;52.870;8.798;2023-08-30T13:56:27;26.20;;;14.35;;
24383;SDS011;12504;52.870;8.798;2023-08-30T13:58:55;21.75;;;14.65;;
24383;SDS011;12504;52.870;8.798;2023-08-30T14:01:21;25.30;;;14.40;;
24383;SDS011;12504;52.870;8.798;2023-08-30T14:03:47;27.08;;;16.13;;
24383;SDS011;12504;52.870;8.798;2023-08-30T14:06:13;23.27;;;15.68;;
24383;SDS011;12504;52.870;8.798;2023-08-30T14:08:38;26.77;;;15.30;;
24383;SDS011;12504;52.870;8.798;2023-08-30T14:11:04;22.90;;;13.85;;
24383;SDS011;12504;52.870;8.798;2023-08-30T14:13:30;22.63;;;14.27;;
24383;SDS011;12504;52.870;8.798;2023-08-30T14:16:00;23.37;;;14.00;;
24383;SDS011;12504;52.870;8.798;2023-08-30T14:18:26;27.60;;;16.15;;
24383;SDS011;12504;52.870;8.798;2023-08-30T14:20:55;26.08;;;17.63;;
24383;SDS011;12504;52.870;8.798;2023-08-30T14:23:27;27.00;;;16.67;;
24383;SDS011;12504;52.870;8.798;2023-08-30T14:25:55;28.65;;;17.85;;
24383;SDS011;12504;52.870;8.798;2023-08-30T14:28:34;33.97;;;18.77;;
24383;SDS011;12504;52.870;8.798;2023-08-30T14:31:00;32.55;;;19.92;;
24383;SDS011;12504;52.870;8.798;2023-08-30T14:33:26;38.55;;;19.75;;